sensor_id;sensor_type;location;lat;lon;timestamp;P1;durP1;ratioP1;P2;durP2;ratioP2
12556;SDS011;6344;49.932;8.308;2023-12-04T00:00:26;28.95;;;21.90;;
12556;SDS011;6344;49.932;8.308;2023-12-04T00:02:53;32.35;;;22.60;;
12556;SDS011;6344;49.932;8.308;2023-12-04T00:05:19;27.08;;;19.75;;
12556;SDS011;6344;49.932;8.308;2023-12-04T00:07:46;37.28;;;22.45;;
12556;SDS011;6344;49.932;8.308;2023-12-04T00:10:14;29.73;;;21.08;;
12556;SDS011;6344;49.932;8.308;2023-12-04T00:12:41;30.27;;;22.08;;
12556;SDS011;6344;49.932;8.308;2023-12-04T00:15:08;30.92;;;21.52;;
12556;SDS011;6344;49.932;8.308;2023-12-04T00:17:35;33.22;;;21.48;;
12556;SDS011;6344;49.932;8.308;2023-12-04T00:20:05;30.63;;;21.05;;
12556;SDS011;6344;49.932;8.308;2023-12-04T00:22:32;32.08;;;20.58;;
12556;SDS011;6344;49.932;8.308;2023-12-04T00:24:59;29.38;;;21.65;;
12556;SDS011;6344;49.932;8.308;2023-12-04T00:27:27;35.13;;;23.05;;
12556;SDS011;6344;49.932;8.308;2023-12-04T00:29:53;29.80;;;21.42;;
12556;SDS011;6344;49.932;8.308;2023-12-04T00:32:20;31.50;;;23.35;;
12556;SDS011;6344;49.932;8.308;2023-12-04T00:34:47;29.30;;;21.50;;
12556;SDS011;6344;49.932;8.308;2023-12-04T00:37:13;29.67;;;21.95;;
12556;SDS011;6344;49.932;8.308;2023-12-04T00:39:40;34.13;;;21.10;;
12556;SDS011;6344;49.932;8.308;2023-12-04T00:42:07;33.58;;;23.85;;
12556;SDS011;6344;49.932;8.308;2023-12-04T00:44:35;30.25;;;20.90;;
12556;SDS011;6344;49.932;8.308;2023-12-04T00:47:01;34.25;;;23.50;;
12556;SDS011;6344;49.932;8.308;2023-12-04T00:49:28;37.67;;;22.60;;
12556;SDS011;6344;49.932;8.308;2023-12-04T00:51:55;42.00;;;22.40;;
12556;SDS011;6344;49.932;8.308;2023-12-04T00:54:21;35.55;;;22.33;;
12556;SDS011;6344;49.932;8.308;2023-12-04T00:56:48;31.90;;;21.42;;
12556;SDS011;6344;49.932;8.308;2023-12-04T00:59:14;35.00;;;21.10;;
12556;SDS011;6344;49.932;8.308;2023-12-04T01:01:42;29.77;;;21.17;;
12556;SDS011;6344;49.932;8.308;2023-12-04T01:04:09;36.05;;;22.08;;
12556;SDS011;6344;49.932;8.308;2023-12-04T01:06:36;32.65;;;21.15;;
12556;SDS011;6344;49.932;8.308;2023-12-04T01:09:02;31.55;;;21.80;;
12556;SDS011;6344;49.932;8.308;2023-12-04T01:11:29;32.28;;;21.65;;
12556;SDS011;6344;49.932;8.308;2023-12-04T01:13:56;34.30;;;22.17;;
12556;SDS011;6344;49.932;8.308;2023-12-04T01:16:23;34.63;;;21.85;;
12556;SDS011;6344;49.932;8.308;2023-12-04T01:18:51;33.50;;;23.02;;
12556;SDS011;6344;49.932;8.308;2023-12-04T01:21:17;38.70;;;21.83;;
12556;SDS011;6344;49.932;8.308;2023-12-04T01:23:44;30.63;;;21.20;;
12556;SDS011;6344;49.932;8.308;2023-12-04T01:26:11;30.23;;;19.95;;
12556;SDS011;6344;49.932;8.308;2023-12-04T01:28:38;35.90;;;22.75;;
12556;SDS011;6344;49.932;8.308;2023-12-04T01:31:04;33.13;;;19.27;;
12556;SDS011;6344;49.932;8.308;2023-12-04T01:33:32;32.13;;;21.33;;
12556;SDS011;6344;49.932;8.308;2023-12-04T01:36:00;33.67;;;22.02;;
12556;SDS011;6344;49.932;8.308;2023-12-04T01:38:27;34.30;;;20.55;;
12556;SDS011;6344;49.932;8.308;2023-12-04T01:40:54;29.88;;;20.10;;
12556;SDS011;6344;49.932;8.308;2023-12-04T01:43:20;33.60;;;22.70;;
12556;SDS011;6344;49.932;8.308;2023-12-04T01:45:47;32.95;;;21.77;;
12556;SDS011;6344;49.932;8.308;2023-12-04T01:48:15;35.13;;;21.67;;
12556;SDS011;6344;49.932;8.308;2023-12-04T01:50:42;36.30;;;21.60;;
12556;SDS011;6344;49.932;8.308;2023-12-04T01:53:10;33.72;;;22.30;;
12556;SDS011;6344;49.932;8.308;2023-12-04T01:55:37;37.47;;;23.27;;
12556;SDS011;6344;49.932;8.308;2023-12-04T01:58:04;33.97;;;21.67;;
12556;SDS011;6344;49.932;8.308;2023-12-04T02:00:31;28.45;;;20.05;;
12556;SDS011;6344;49.932;8.308;2023-12-04T02:02:58;33.22;;;21.00;;
12556;SDS011;6344;49.932;8.308;2023-12-04T02:05:25;30.50;;;21.15;;
12556;SDS011;6344;49.932;8.308;2023-12-04T02:07:52;31.63;;;20.58;;
12556;SDS011;6344;49.932;8.308;2023-12-04T02:10:20;29.75;;;20.15;;
12556;SDS011;6344;49.932;8.308;2023-12-04T02:12:47;33.33;;;22.15;;
12556;SDS011;6344;49.932;8.308;2023-12-04T02:15:14;39.33;;;23.00;;
12556;SDS011;6344;49.932;8.308;2023-12-04T02:17:41;31.30;;;21.00;;
12556;SDS011;6344;49.932;8.308;2023-12-04T02:20:09;30.00;;;21.02;;
12556;SDS011;6344;49.932;8.308;2023-12-04T02:22:38;36.35;;;23.75;;
12556;SDS011;6344;49.932;8.308;2023-12-04T02:25:06;32.92;;;20.83;;
12556;SDS011;6344;49.932;8.308;2023-12-04T02:27:37;33.13;;;22.02;;
12556;SDS011;6344;49.932;8.308;2023-12-04T02:30:07;32.22;;;20.40;;
12556;SDS011;6344;49.932;8.308;2023-12-04T02:32:37;29.38;;;21.33;;
12556;SDS011;6344;49.932;8.308;2023-12-04T02:35:08;32.95;;;21.38;;
12556;SDS011;6344;49.932;8.308;2023-12-04T02:40:59;31.20;;;21.50;;
12556;SDS011;6344;49.932;8.308;2023-12-04T02:43:26;32.78;;;21.58;;
12556;SDS011;6344;49.932;8.308;2023-12-04T02:45:52;29.55;;;18.50;;
12556;SDS011;6344;49.932;8.308;2023-12-04T02:48:19;30.88;;;20.00;;
12556;SDS011;6344;49.932;8.308;2023-12-04T02:50:45;32.97;;;21.75;;
12556;SDS011;6344;49.932;8.308;2023-12-04T02:53:12;31.80;;;21.40;;
12556;SDS011;6344;49.932;8.308;2023-12-04T02:55:39;34.97;;;22.42;;
12556;SDS011;6344;49.932;8.308;2023-12-04T02:58:07;37.72;;;20.42;;
12556;SDS011;6344;49.932;8.308;2023-12-04T03:00:33;31.08;;;21.77;;
12556;SDS011;6344;49.932;8.308;2023-12-04T03:03:00;34.90;;;21.92;;
12556;SDS011;6344;49.932;8.308;2023-12-04T03:05:26;34.22;;;22.30;;
12556;SDS011;6344;49.932;8.308;2023-12-04T03:07:53;34.70;;;20.65;;
12556;SDS011;6344;49.932;8.308;2023-12-04T03:10:20;31.65;;;19.70;;
12556;SDS011;6344;49.932;8.308;2023-12-04T03:12:46;32.20;;;21.35;;
12556;SDS011;6344;49.932;8.308;2023-12-04T03:15:14;35.10;;;23.30;;
12556;SDS011;6344;49.932;8.308;2023-12-04T03:17:41;30.38;;;20.95;;
12556;SDS011;6344;49.932;8.308;2023-12-04T03:20:08;34.65;;;21.13;;
12556;SDS011;6344;49.932;8.308;2023-12-04T03:22:36;35.33;;;22.45;;
12556;SDS011;6344;49.932;8.308;2023-12-04T03:25:03;41.83;;;24.70;;
12556;SDS011;6344;49.932;8.308;2023-12-04T03:27:30;37.38;;;24.63;;
12556;SDS011;6344;49.932;8.308;2023-12-04T03:29:57;35.88;;;22.90;;
12556;SDS011;6344;49.932;8.308;2023-12-04T03:32:25;36.10;;;21.20;;
12556;SDS011;6344;49.932;8.308;2023-12-04T03:34:51;40.63;;;23.35;;
12556;SDS011;6344;49.932;8.308;2023-12-04T03:37:18;34.75;;;23.00;;
12556;SDS011;6344;49.932;8.308;2023-12-04T03:39:45;41.13;;;23.58;;
12556;SDS011;6344;49.932;8.308;2023-12-04T03:42:11;41.78;;;25.42;;
12556;SDS011;6344;49.932;8.308;2023-12-04T03:44:38;36.63;;;23.05;;
12556;SDS011;6344;49.932;8.308;2023-12-04T03:47:05;35.05;;;20.95;;
12556;SDS011;6344;49.932;8.308;2023-12-04T03:49:33;35.92;;;21.60;;
12556;SDS011;6344;49.932;8.308;2023-12-04T03:51:59;34.95;;;22.08;;
12556;SDS011;6344;49.932;8.308;2023-12-04T03:54:26;31.52;;;21.50;;
12556;SDS011;6344;49.932;8.308;2023-12-04T03:56:52;34.03;;;20.95;;
12556;SDS011;6344;49.932;8.308;2023-12-04T03:59:19;34.65;;;18.83;;
12556;SDS011;6344;49.932;8.308;2023-12-04T04:01:46;34.65;;;22.30;;
12556;SDS011;6344;49.932;8.308;2023-12-04T04:04:12;32.15;;;22.88;;
12556;SDS011;6344;49.932;8.308;2023-12-04T04:06:40;37.95;;;21.23;;
12556;SDS011;6344;49.932;8.308;2023-12-04T04:09:07;34.05;;;22.45;;
12556;SDS011;6344;49.932;8.308;2023-12-04T04:11:34;34.35;;;23.40;;
12556;SDS011;6344;49.932;8.308;2023-12-04T04:14:01;35.60;;;23.17;;
12556;SDS011;6344;49.932;8.308;2023-12-04T04:16:27;32.13;;;21.42;;
12556;SDS011;6344;49.932;8.308;2023-12-04T04:18:54;31.25;;;21.42;;
12556;SDS011;6344;49.932;8.308;2023-12-04T04:21:20;31.55;;;21.52;;
12556;SDS011;6344;49.932;8.308;2023-12-04T04:23:48;35.72;;;24.98;;
12556;SDS011;6344;49.932;8.308;2023-12-04T04:26:15;39.75;;;22.63;;
12556;SDS011;6344;49.932;8.308;2023-12-04T04:28:42;33.30;;;21.80;;
12556;SDS011;6344;49.932;8.308;2023-12-04T04:31:08;32.00;;;21.98;;
12556;SDS011;6344;49.932;8.308;2023-12-04T04:33:35;37.70;;;22.63;;
12556;SDS011;6344;49.932;8.308;2023-12-04T04:36:02;35.33;;;22.38;;
12556;SDS011;6344;49.932;8.308;2023-12-04T04:38:29;35.85;;;22.83;;
12556;SDS011;6344;49.932;8.308;2023-12-04T04:40:57;36.17;;;24.48;;
12556;SDS011;6344;49.932;8.308;2023-12-04T04:43:23;31.77;;;21.48;;
12556;SDS011;6344;49.932;8.308;2023-12-04T04:45:50;34.90;;;22.15;;
12556;SDS011;6344;49.932;8.308;2023-12-04T04:48:17;35.25;;;22.45;;
12556;SDS011;6344;49.932;8.308;2023-12-04T04:50:44;34.00;;;22.80;;
12556;SDS011;6344;49.932;8.308;2023-12-04T04:53:11;29.88;;;20.92;;
12556;SDS011;6344;49.932;8.308;2023-12-04T04:55:38;38.33;;;24.00;;
12556;SDS011;6344;49.932;8.308;2023-12-04T04:58:06;28.83;;;21.98;;
12556;SDS011;6344;49.932;8.308;2023-12-04T05:00:32;38.08;;;23.45;;
12556;SDS011;6344;49.932;8.308;2023-12-04T05:02:59;32.78;;;21.35;;
12556;SDS011;6344;49.932;8.308;2023-12-04T05:05:25;32.90;;;20.05;;
12556;SDS011;6344;49.932;8.308;2023-12-04T05:07:52;34.33;;;22.33;;
12556;SDS011;6344;49.932;8.308;2023-12-04T05:10:19;32.55;;;22.17;;
12556;SDS011;6344;49.932;8.308;2023-12-04T05:12:45;33.00;;;22.90;;
12556;SDS011;6344;49.932;8.308;2023-12-04T05:15:13;33.05;;;22.83;;
12556;SDS011;6344;49.932;8.308;2023-12-04T05:17:40;33.72;;;23.17;;
12556;SDS011;6344;49.932;8.308;2023-12-04T05:20:07;33.15;;;21.48;;
12556;SDS011;6344;49.932;8.308;2023-12-04T05:22:35;35.80;;;22.27;;
12556;SDS011;6344;49.932;8.308;2023-12-04T05:25:01;29.67;;;19.58;;
12556;SDS011;6344;49.932;8.308;2023-12-04T05:27:28;33.55;;;23.58;;
12556;SDS011;6344;49.932;8.308;2023-12-04T05:29:55;38.95;;;23.77;;
12556;SDS011;6344;49.932;8.308;2023-12-04T05:32:22;31.27;;;21.63;;
12556;SDS011;6344;49.932;8.308;2023-12-04T05:34:49;32.08;;;21.73;;
12556;SDS011;6344;49.932;8.308;2023-12-04T05:37:16;30.25;;;23.25;;
12556;SDS011;6344;49.932;8.308;2023-12-04T05:39:42;37.42;;;22.90;;
12556;SDS011;6344;49.932;8.308;2023-12-04T05:42:09;31.75;;;20.63;;
12556;SDS011;6344;49.932;8.308;2023-12-04T05:44:35;30.10;;;21.77;;
12556;SDS011;6344;49.932;8.308;2023-12-04T05:47:02;30.23;;;21.30;;
12556;SDS011;6344;49.932;8.308;2023-12-04T05:49:30;31.52;;;20.80;;
12556;SDS011;6344;49.932;8.308;2023-12-04T05:51:58;32.17;;;21.02;;
12556;SDS011;6344;49.932;8.308;2023-12-04T05:54:24;31.40;;;21.45;;
12556;SDS011;6344;49.932;8.308;2023-12-04T05:56:51;33.05;;;21.00;;
12556;SDS011;6344;49.932;8.308;2023-12-04T05:59:18;32.22;;;21.90;;
12556;SDS011;6344;49.932;8.308;2023-12-04T06:01:44;31.08;;;21.85;;
12556;SDS011;6344;49.932;8.308;2023-12-04T06:04:11;36.95;;;21.65;;
12556;SDS011;6344;49.932;8.308;2023-12-04T06:06:39;33.08;;;24.23;;
12556;SDS011;6344;49.932;8.308;2023-12-04T06:09:05;33.83;;;23.33;;
12556;SDS011;6344;49.932;8.308;2023-12-04T06:11:32;35.58;;;22.63;;
12556;SDS011;6344;49.932;8.308;2023-12-04T06:13:59;30.40;;;21.10;;
12556;SDS011;6344;49.932;8.308;2023-12-04T06:16:25;33.00;;;20.52;;
12556;SDS011;6344;49.932;8.308;2023-12-04T06:18:52;33.63;;;22.95;;
12556;SDS011;6344;49.932;8.308;2023-12-04T06:21:18;40.85;;;23.73;;
12556;SDS011;6344;49.932;8.308;2023-12-04T06:23:47;33.85;;;23.38;;
12556;SDS011;6344;49.932;8.308;2023-12-04T06:26:14;29.30;;;19.70;;
12556;SDS011;6344;49.932;8.308;2023-12-04T06:28:42;30.75;;;21.60;;
12556;SDS011;6344;49.932;8.308;2023-12-04T06:31:10;34.50;;;21.25;;
12556;SDS011;6344;49.932;8.308;2023-12-04T06:33:37;32.88;;;22.35;;
12556;SDS011;6344;49.932;8.308;2023-12-04T06:36:05;29.48;;;21.83;;
12556;SDS011;6344;49.932;8.308;2023-12-04T06:38:33;27.63;;;20.50;;
12556;SDS011;6344;49.932;8.308;2023-12-04T06:41:05;31.42;;;22.42;;
12556;SDS011;6344;49.932;8.308;2023-12-04T06:43:33;36.45;;;22.05;;
12556;SDS011;6344;49.932;8.308;2023-12-04T06:46:00;30.73;;;22.38;;
12556;SDS011;6344;49.932;8.308;2023-12-04T06:48:27;34.22;;;23.95;;
12556;SDS011;6344;49.932;8.308;2023-12-04T06:50:54;33.13;;;22.60;;
12556;SDS011;6344;49.932;8.308;2023-12-04T06:53:21;31.98;;;22.85;;
12556;SDS011;6344;49.932;8.308;2023-12-04T06:55:47;32.33;;;18.80;;
12556;SDS011;6344;49.932;8.308;2023-12-04T07:05:00;28.63;;;20.33;;
12556;SDS011;6344;49.932;8.308;2023-12-04T07:07:28;36.38;;;22.20;;
12556;SDS011;6344;49.932;8.308;2023-12-04T07:09:54;31.83;;;21.45;;
12556;SDS011;6344;49.932;8.308;2023-12-04T07:12:21;30.33;;;20.88;;
12556;SDS011;6344;49.932;8.308;2023-12-04T07:14:48;34.90;;;21.60;;
12556;SDS011;6344;49.932;8.308;2023-12-04T07:17:15;34.85;;;20.90;;
12556;SDS011;6344;49.932;8.308;2023-12-04T07:19:41;29.50;;;22.27;;
12556;SDS011;6344;49.932;8.308;2023-12-04T07:22:09;30.80;;;21.02;;
12556;SDS011;6344;49.932;8.308;2023-12-04T07:24:36;29.10;;;18.58;;
12556;SDS011;6344;49.932;8.308;2023-12-04T07:27:03;29.05;;;22.42;;
12556;SDS011;6344;49.932;8.308;2023-12-04T07:29:30;27.55;;;18.27;;
12556;SDS011;6344;49.932;8.308;2023-12-04T07:31:57;33.10;;;19.92;;
12556;SDS011;6344;49.932;8.308;2023-12-04T07:34:23;33.53;;;22.30;;
12556;SDS011;6344;49.932;8.308;2023-12-04T07:36:50;26.65;;;17.10;;
12556;SDS011;6344;49.932;8.308;2023-12-04T07:39:18;30.25;;;21.77;;
12556;SDS011;6344;49.932;8.308;2023-12-04T07:41:45;37.20;;;21.73;;
12556;SDS011;6344;49.932;8.308;2023-12-04T07:44:12;34.42;;;20.42;;
12556;SDS011;6344;49.932;8.308;2023-12-04T07:46:38;32.63;;;21.05;;
12556;SDS011;6344;49.932;8.308;2023-12-04T07:49:05;30.70;;;20.20;;
12556;SDS011;6344;49.932;8.308;2023-12-04T07:51:32;24.50;;;19.42;;
12556;SDS011;6344;49.932;8.308;2023-12-04T07:53:58;25.33;;;18.80;;
12556;SDS011;6344;49.932;8.308;2023-12-04T07:56:26;27.92;;;19.65;;
12556;SDS011;6344;49.932;8.308;2023-12-04T07:58:53;31.08;;;21.75;;
12556;SDS011;6344;49.932;8.308;2023-12-04T08:01:19;23.67;;;16.98;;
12556;SDS011;6344;49.932;8.308;2023-12-04T08:03:46;28.25;;;20.00;;
12556;SDS011;6344;49.932;8.308;2023-12-04T08:06:13;24.00;;;16.15;;
12556;SDS011;6344;49.932;8.308;2023-12-04T08:08:40;30.35;;;19.88;;
12556;SDS011;6344;49.932;8.308;2023-12-04T08:11:09;17.40;;;11.38;;
12556;SDS011;6344;49.932;8.308;2023-12-04T08:13:39;22.65;;;15.40;;
12556;SDS011;6344;49.932;8.308;2023-12-04T08:16:12;27.35;;;18.30;;
12556;SDS011;6344;49.932;8.308;2023-12-04T08:18:39;22.80;;;16.10;;
12556;SDS011;6344;49.932;8.308;2023-12-04T08:21:06;22.98;;;14.65;;
12556;SDS011;6344;49.932;8.308;2023-12-04T08:23:34;24.65;;;16.90;;
12556;SDS011;6344;49.932;8.308;2023-12-04T08:26:00;24.83;;;17.95;;
12556;SDS011;6344;49.932;8.308;2023-12-04T08:28:27;23.65;;;17.20;;
12556;SDS011;6344;49.932;8.308;2023-12-04T08:30:55;28.45;;;18.77;;
12556;SDS011;6344;49.932;8.308;2023-12-04T08:33:22;21.40;;;16.95;;
12556;SDS011;6344;49.932;8.308;2023-12-04T08:35:49;22.20;;;17.38;;
12556;SDS011;6344;49.932;8.308;2023-12-04T08:38:16;24.35;;;15.77;;
12556;SDS011;6344;49.932;8.308;2023-12-04T08:40:42;21.30;;;16.40;;
12556;SDS011;6344;49.932;8.308;2023-12-04T08:43:09;20.80;;;16.10;;
12556;SDS011;6344;49.932;8.308;2023-12-04T08:45:36;23.13;;;16.80;;
12556;SDS011;6344;49.932;8.308;2023-12-04T08:48:04;23.38;;;17.45;;
12556;SDS011;6344;49.932;8.308;2023-12-04T08:50:31;8.23;;;5.03;;
12556;SDS011;6344;49.932;8.308;2023-12-04T08:52:57;25.38;;;17.40;;
12556;SDS011;6344;49.932;8.308;2023-12-04T08:55:24;24.38;;;16.27;;
12556;SDS011;6344;49.932;8.308;2023-12-04T08:57:51;23.80;;;16.45;;
12556;SDS011;6344;49.932;8.308;2023-12-04T09:01:58;21.13;;;15.85;;
12556;SDS011;6344;49.932;8.308;2023-12-04T09:04:28;25.30;;;18.57;;
12556;SDS011;6344;49.932;8.308;2023-12-04T09:06:55;26.30;;;17.83;;
12556;SDS011;6344;49.932;8.308;2023-12-04T09:09:21;25.33;;;18.38;;
12556;SDS011;6344;49.932;8.308;2023-12-04T09:11:48;19.50;;;15.15;;
12556;SDS011;6344;49.932;8.308;2023-12-04T09:14:15;20.65;;;14.63;;
12556;SDS011;6344;49.932;8.308;2023-12-04T09:16:42;22.63;;;17.17;;
12556;SDS011;6344;49.932;8.308;2023-12-04T09:19:10;22.33;;;17.67;;
12556;SDS011;6344;49.932;8.308;2023-12-04T09:21:36;25.10;;;18.20;;
12556;SDS011;6344;49.932;8.308;2023-12-04T09:24:03;21.05;;;15.68;;
12556;SDS011;6344;49.932;8.308;2023-12-04T09:26:30;23.60;;;17.00;;
12556;SDS011;6344;49.932;8.308;2023-12-04T09:28:56;20.63;;;15.50;;
12556;SDS011;6344;49.932;8.308;2023-12-04T09:31:23;24.33;;;17.65;;
12556;SDS011;6344;49.932;8.308;2023-12-04T09:33:49;22.52;;;16.63;;
12556;SDS011;6344;49.932;8.308;2023-12-04T09:36:17;23.00;;;17.45;;
12556;SDS011;6344;49.932;8.308;2023-12-04T09:38:44;23.38;;;17.63;;
12556;SDS011;6344;49.932;8.308;2023-12-04T09:41:12;19.77;;;15.50;;
12556;SDS011;6344;49.932;8.308;2023-12-04T09:43:39;23.85;;;17.45;;
12556;SDS011;6344;49.932;8.308;2023-12-04T09:46:07;23.23;;;18.20;;
12556;SDS011;6344;49.932;8.308;2023-12-04T09:48:34;20.80;;;16.90;;
12556;SDS011;6344;49.932;8.308;2023-12-04T09:51:01;26.42;;;17.98;;
12556;SDS011;6344;49.932;8.308;2023-12-04T09:53:30;25.58;;;17.65;;
12556;SDS011;6344;49.932;8.308;2023-12-04T09:55:58;18.02;;;14.20;;
12556;SDS011;6344;49.932;8.308;2023-12-04T09:58:26;21.87;;;16.60;;
12556;SDS011;6344;49.932;8.308;2023-12-04T10:00:54;22.85;;;17.35;;
12556;SDS011;6344;49.932;8.308;2023-12-04T10:03:21;20.20;;;14.57;;
12556;SDS011;6344;49.932;8.308;2023-12-04T10:05:48;19.63;;;15.43;;
12556;SDS011;6344;49.932;8.308;2023-12-04T10:08:15;24.00;;;16.80;;
12556;SDS011;6344;49.932;8.308;2023-12-04T10:10:43;26.77;;;16.73;;
12556;SDS011;6344;49.932;8.308;2023-12-04T10:13:09;18.48;;;14.95;;
12556;SDS011;6344;49.932;8.308;2023-12-04T10:15:42;22.67;;;17.00;;
12556;SDS011;6344;49.932;8.308;2023-12-04T10:18:22;22.00;;;17.17;;
12556;SDS011;6344;49.932;8.308;2023-12-04T10:20:51;21.05;;;15.65;;
12556;SDS011;6344;49.932;8.308;2023-12-04T10:23:18;21.73;;;16.87;;
12556;SDS011;6344;49.932;8.308;2023-12-04T10:25:46;21.27;;;17.13;;
12556;SDS011;6344;49.932;8.308;2023-12-04T10:28:16;20.00;;;16.97;;
12556;SDS011;6344;49.932;8.308;2023-12-04T10:30:43;23.50;;;15.97;;
12556;SDS011;6344;49.932;8.308;2023-12-04T10:33:11;20.50;;;15.93;;
12556;SDS011;6344;49.932;8.308;2023-12-04T10:35:39;22.53;;;17.23;;
12556;SDS011;6344;49.932;8.308;2023-12-04T10:38:06;20.17;;;17.10;;
12556;SDS011;6344;49.932;8.308;2023-12-04T10:40:34;22.23;;;16.60;;
12556;SDS011;6344;49.932;8.308;2023-12-04T10:43:14;21.50;;;16.50;;
12556;SDS011;6344;49.932;8.308;2023-12-04T10:45:42;22.30;;;15.30;;
12556;SDS011;6344;49.932;8.308;2023-12-04T10:48:10;19.17;;;15.70;;
12556;SDS011;6344;49.932;8.308;2023-12-04T10:50:38;20.20;;;16.27;;
12556;SDS011;6344;49.932;8.308;2023-12-04T10:53:06;15.47;;;12.73;;
12556;SDS011;6344;49.932;8.308;2023-12-04T10:55:34;18.30;;;15.17;;
12556;SDS011;6344;49.932;8.308;2023-12-04T10:58:02;18.50;;;13.87;;
12556;SDS011;6344;49.932;8.308;2023-12-04T11:00:33;19.73;;;15.55;;
12556;SDS011;6344;49.932;8.308;2023-12-04T11:03:03;19.63;;;15.83;;
12556;SDS011;6344;49.932;8.308;2023-12-04T11:05:33;24.73;;;17.73;;
12556;SDS011;6344;49.932;8.308;2023-12-04T11:08:03;20.20;;;15.87;;
12556;SDS011;6344;49.932;8.308;2023-12-04T11:10:32;21.63;;;14.87;;
12556;SDS011;6344;49.932;8.308;2023-12-04T11:13:00;18.38;;;13.93;;
12556;SDS011;6344;49.932;8.308;2023-12-04T11:15:34;23.05;;;16.40;;
12556;SDS011;6344;49.932;8.308;2023-12-04T11:18:05;20.27;;;15.97;;
12556;SDS011;6344;49.932;8.308;2023-12-04T11:20:36;24.85;;;17.90;;
12556;SDS011;6344;49.932;8.308;2023-12-04T11:23:07;14.90;;;12.13;;
12556;SDS011;6344;49.932;8.308;2023-12-04T11:25:34;20.17;;;13.47;;
12556;SDS011;6344;49.932;8.308;2023-12-04T11:28:01;19.13;;;13.57;;
12556;SDS011;6344;49.932;8.308;2023-12-04T11:30:29;24.10;;;16.70;;
12556;SDS011;6344;49.932;8.308;2023-12-04T11:32:58;27.83;;;19.80;;
12556;SDS011;6344;49.932;8.308;2023-12-04T11:35:26;27.83;;;19.65;;
12556;SDS011;6344;49.932;8.308;2023-12-04T11:37:53;26.80;;;19.85;;
12556;SDS011;6344;49.932;8.308;2023-12-04T11:40:20;26.13;;;19.65;;
12556;SDS011;6344;49.932;8.308;2023-12-04T11:42:47;32.60;;;19.15;;
12556;SDS011;6344;49.932;8.308;2023-12-04T11:45:17;27.13;;;18.02;;
12556;SDS011;6344;49.932;8.308;2023-12-04T11:47:48;24.60;;;15.55;;
12556;SDS011;6344;49.932;8.308;2023-12-04T11:50:16;23.70;;;15.63;;
12556;SDS011;6344;49.932;8.308;2023-12-04T11:52:45;26.70;;;19.00;;
12556;SDS011;6344;49.932;8.308;2023-12-04T11:55:13;24.50;;;17.73;;
12556;SDS011;6344;49.932;8.308;2023-12-04T11:57:42;30.33;;;21.98;;
12556;SDS011;6344;49.932;8.308;2023-12-04T12:00:18;24.00;;;20.08;;
12556;SDS011;6344;49.932;8.308;2023-12-04T12:02:48;23.63;;;16.58;;
12556;SDS011;6344;49.932;8.308;2023-12-04T12:05:32;27.00;;;20.10;;
12556;SDS011;6344;49.932;8.308;2023-12-04T12:08:00;27.27;;;20.27;;
12556;SDS011;6344;49.932;8.308;2023-12-04T12:10:28;27.83;;;21.83;;
12556;SDS011;6344;49.932;8.308;2023-12-04T12:12:55;31.67;;;20.40;;
12556;SDS011;6344;49.932;8.308;2023-12-04T12:15:22;29.57;;;20.80;;
12556;SDS011;6344;49.932;8.308;2023-12-04T12:17:49;27.37;;;19.00;;
12556;SDS011;6344;49.932;8.308;2023-12-04T12:20:16;29.20;;;21.05;;
12556;SDS011;6344;49.932;8.308;2023-12-04T12:22:47;29.67;;;21.67;;
12556;SDS011;6344;49.932;8.308;2023-12-04T12:25:14;24.63;;;20.40;;
12556;SDS011;6344;49.932;8.308;2023-12-04T12:27:41;27.20;;;21.17;;
12556;SDS011;6344;49.932;8.308;2023-12-04T12:30:08;28.15;;;18.77;;
12556;SDS011;6344;49.932;8.308;2023-12-04T12:32:36;28.20;;;21.10;;
12556;SDS011;6344;49.932;8.308;2023-12-04T12:35:03;29.90;;;20.90;;
12556;SDS011;6344;49.932;8.308;2023-12-04T12:37:30;33.20;;;22.10;;
12556;SDS011;6344;49.932;8.308;2023-12-04T12:39:58;22.57;;;18.07;;
12556;SDS011;6344;49.932;8.308;2023-12-04T12:42:25;22.73;;;17.00;;
12556;SDS011;6344;49.932;8.308;2023-12-04T12:44:52;18.30;;;13.10;;
12556;SDS011;6344;49.932;8.308;2023-12-04T12:47:20;27.63;;;17.90;;
12556;SDS011;6344;49.932;8.308;2023-12-04T12:49:47;24.30;;;17.27;;
12556;SDS011;6344;49.932;8.308;2023-12-04T12:52:14;14.48;;;11.65;;
12556;SDS011;6344;49.932;8.308;2023-12-04T12:54:40;26.75;;;17.30;;
12556;SDS011;6344;49.932;8.308;2023-12-04T12:57:08;29.30;;;21.53;;
12556;SDS011;6344;49.932;8.308;2023-12-04T12:59:36;17.50;;;15.18;;
12556;SDS011;6344;49.932;8.308;2023-12-04T13:02:04;40.90;;;27.37;;
12556;SDS011;6344;49.932;8.308;2023-12-04T13:04:35;26.27;;;19.92;;
12556;SDS011;6344;49.932;8.308;2023-12-04T13:07:02;22.67;;;15.10;;
12556;SDS011;6344;49.932;8.308;2023-12-04T13:09:30;24.93;;;19.63;;
12556;SDS011;6344;49.932;8.308;2023-12-04T13:11:57;26.70;;;19.20;;
12556;SDS011;6344;49.932;8.308;2023-12-04T13:14:26;30.73;;;21.17;;
12556;SDS011;6344;49.932;8.308;2023-12-04T13:16:52;29.65;;;21.25;;
12556;SDS011;6344;49.932;8.308;2023-12-04T13:19:21;24.88;;;19.10;;
12556;SDS011;6344;49.932;8.308;2023-12-04T13:21:47;23.67;;;19.40;;
12556;SDS011;6344;49.932;8.308;2023-12-04T13:24:14;26.97;;;20.00;;
12556;SDS011;6344;49.932;8.308;2023-12-04T13:26:41;26.77;;;19.20;;
12556;SDS011;6344;49.932;8.308;2023-12-04T13:29:07;24.37;;;19.20;;
12556;SDS011;6344;49.932;8.308;2023-12-04T13:31:35;25.77;;;18.70;;
12556;SDS011;6344;49.932;8.308;2023-12-04T13:34:02;26.50;;;19.03;;
12556;SDS011;6344;49.932;8.308;2023-12-04T13:36:31;25.40;;;18.47;;
12556;SDS011;6344;49.932;8.308;2023-12-04T13:38:58;22.80;;;19.23;;
12556;SDS011;6344;49.932;8.308;2023-12-04T13:41:24;18.77;;;15.57;;
12556;SDS011;6344;49.932;8.308;2023-12-04T13:44:08;23.25;;;16.67;;
12556;SDS011;6344;49.932;8.308;2023-12-04T13:46:39;19.73;;;14.80;;
12556;SDS011;6344;49.932;8.308;2023-12-04T13:49:06;13.77;;;9.60;;
12556;SDS011;6344;49.932;8.308;2023-12-04T13:51:33;22.48;;;16.00;;
12556;SDS011;6344;49.932;8.308;2023-12-04T13:54:02;25.05;;;18.40;;
12556;SDS011;6344;49.932;8.308;2023-12-04T13:56:40;24.52;;;19.92;;
12556;SDS011;6344;49.932;8.308;2023-12-04T13:59:16;25.65;;;17.90;;
12556;SDS011;6344;49.932;8.308;2023-12-04T14:01:46;27.55;;;19.50;;
12556;SDS011;6344;49.932;8.308;2023-12-04T14:04:14;24.30;;;18.27;;
12556;SDS011;6344;49.932;8.308;2023-12-04T14:06:41;28.40;;;20.10;;
12556;SDS011;6344;49.932;8.308;2023-12-04T14:09:07;25.73;;;16.08;;
12556;SDS011;6344;49.932;8.308;2023-12-04T14:11:39;29.58;;;20.60;;
12556;SDS011;6344;49.932;8.308;2023-12-04T14:14:08;25.20;;;17.88;;
12556;SDS011;6344;49.932;8.308;2023-12-04T14:16:34;28.77;;;21.88;;
12556;SDS011;6344;49.932;8.308;2023-12-04T14:19:02;22.45;;;16.00;;
12556;SDS011;6344;49.932;8.308;2023-12-04T14:21:29;18.30;;;13.30;;
12556;SDS011;6344;49.932;8.308;2023-12-04T14:23:56;30.70;;;21.42;;
12556;SDS011;6344;49.932;8.308;2023-12-04T14:26:23;16.40;;;8.35;;
12556;SDS011;6344;49.932;8.308;2023-12-04T14:28:49;29.05;;;21.55;;
12556;SDS011;6344;49.932;8.308;2023-12-04T14:31:16;31.17;;;20.02;;
12556;SDS011;6344;49.932;8.308;2023-12-04T14:33:43;26.42;;;19.15;;
12556;SDS011;6344;49.932;8.308;2023-12-04T14:36:11;25.20;;;18.80;;
12556;SDS011;6344;49.932;8.308;2023-12-04T14:38:38;27.33;;;19.92;;
12556;SDS011;6344;49.932;8.308;2023-12-04T14:41:05;27.35;;;20.27;;
12556;SDS011;6344;49.932;8.308;2023-12-04T14:43:34;19.63;;;12.90;;
12556;SDS011;6344;49.932;8.308;2023-12-04T14:46:01;31.52;;;21.75;;
12556;SDS011;6344;49.932;8.308;2023-12-04T14:48:28;29.77;;;20.55;;